SKBQ/BAQ METAR and TAF weather

Enter ICAO airport designator
Station Type Date Time Source
SKBQ METAR 2022/01/18 08:00 UTC NOAA

SKBQ 180800Z 02009KT 340V050 6000 VCFG SCT010 26/24 Q1009 NOSIG RMK A2982


Station Type Date Time Source
SKBQ Decoded METAR 2022/01/18 08:00 UTC NOAA

Barranquilla / Ernestocortissoz, Colombia (SKBQ) 10-53N 074-47W 30M
Jan 18, 2022 - 03:00 AM EST / 2022.01.18 0800 UTC
Wind: from the NNE (020 degrees) at 10 MPH (9 KT) (direction variable):0
Visibility: 3 mile(s):0
Sky conditions: partly cloudy
Weather: fog in the vicinity
Temperature: 78 F (26 C)
Dew Point: 75 F (24 C)
Relative Humidity: 88%
Pressure (altimeter): 29.80 in. Hg (1009 hPa)
ob: SKBQ 180800Z 02009KT 340V050 6000 VCFG SCT010 26/24 Q1009 NOSIG RMK A2982
cycle: 8

Station Type Date Time Source
SKBQ TAF 2022/01/18 06:43 UTC NOAA

TAF SKBQ 180430Z 1806/1906 02010KT 9999 SCT010 TX31/1818Z TN25/1810Z

Example: see airport list